RYR7F GMMX-LPFR
Flight info
| Callsign | RYR7F |
|---|---|
| Flight time | 0h 59m |
| Altitude | 36000 |
| Route | MABAP UR722 AMSEL DCT GIMAL |
| Aircraft | B738/M-SDE2E3FGHIRWXY/LB1 |
Departure
| Time | 2026-05-05 20:45 |
|---|---|
| Airport | Marrakesh Menara Airport (GMMX) |
Arrival
| Time | 2026-05-05 21:44 |
|---|---|
| Airport | Faro - Gago Coutinho International Airport (LPFR) |
| Time | Latitude | Longitude | Altitude | Speed | Heading |
|---|---|---|---|---|---|
| 2026-05-05 20:27 | 31.60292 | -8.02405 | 1548 ft | 0 kts | 185° |
| 2026-05-05 20:37 | 31.60293 | -8.02405 | 1548 ft | 2 kts | 185° |
| 2026-05-05 20:37 | 31.60318 | -8.02402 | 1548 ft | 4 kts | 182° |
| 2026-05-05 20:38 | 31.60345 | -8.02401 | 1537 ft | 4 kts | 185° |
| 2026-05-05 20:38 | 31.60371 | -8.02396 | 1545 ft | 3 kts | 201° |
| 2026-05-05 20:38 | 31.60391 | -8.02384 | 1549 ft | 4 kts | 226° |
| 2026-05-05 20:38 | 31.60403 | -8.02359 | 1545 ft | 4 kts | 264° |
| 2026-05-05 20:39 | 31.60403 | -8.02331 | 1548 ft | 1 kts | 276° |
| 2026-05-05 20:39 | 31.60403 | -8.02330 | 1548 ft | 1 kts | 276° |
| 2026-05-05 20:41 | 31.60395 | -8.02348 | 1545 ft | 1 kts | 202° |
| 2026-05-05 20:41 | 31.60389 | -8.02337 | 1539 ft | 3 kts | 90° |
| 2026-05-05 20:41 | 31.60397 | -8.02275 | 1545 ft | 11 kts | 92° |
| 2026-05-05 20:42 | 31.60390 | -8.02187 | 1548 ft | 10 kts | 95° |
| 2026-05-05 20:42 | 31.60383 | -8.02118 | 1540 ft | 7 kts | 96° |
| 2026-05-05 20:42 | 31.60391 | -8.02053 | 1547 ft | 11 kts | 48° |
| 2026-05-05 20:42 | 31.60457 | -8.02033 | 1549 ft | 9 kts | 7° |
| 2026-05-05 20:43 | 31.60525 | -8.02019 | 1549 ft | 8 kts | 20° |
| 2026-05-05 20:43 | 31.60544 | -8.02027 | 1539 ft | 1 kts | 307° |
| 2026-05-05 20:43 | 31.60550 | -8.02053 | 1539 ft | 2 kts | 281° |
| 2026-05-05 20:43 | 31.60550 | -8.02054 | 1548 ft | 0 kts | 278° |
| 2026-05-05 20:44 | 31.60557 | -8.02127 | 1539 ft | 35 kts | 276° |
| 2026-05-05 20:44 | 31.60585 | -8.02445 | 1544 ft | 81 kts | 276° |
| 2026-05-05 20:44 | 31.60697 | -8.03727 | 1541 ft | 153 kts | 277° |
| 2026-05-05 20:44 | 31.60769 | -8.04641 | 1675 ft | 174 kts | 278° |
| 2026-05-05 20:45 | 31.61047 | -8.07526 | 3088 ft | 185 kts | 281° |
| 2026-05-05 20:45 | 31.61196 | -8.09101 | 3427 ft | 205 kts | 279° |
| 2026-05-05 20:45 | 31.61352 | -8.10823 | 3681 ft | 220 kts | 278° |
| 2026-05-05 20:46 | 31.61514 | -8.12680 | 3890 ft | 237 kts | 278° |
| 2026-05-05 20:46 | 31.61682 | -8.14657 | 4226 ft | 249 kts | 278° |
| 2026-05-05 20:46 | 31.62041 | -8.16653 | 4710 ft | 253 kts | 298° |
| 2026-05-05 20:46 | 31.63187 | -8.18195 | 5326 ft | 255 kts | 326° |
| 2026-05-05 20:47 | 31.64823 | -8.19029 | 5886 ft | 261 kts | 348° |
| 2026-05-05 20:47 | 31.66641 | -8.19037 | 6481 ft | 266 kts | 12° |
| 2026-05-05 20:47 | 31.68450 | -8.18550 | 7126 ft | 268 kts | 13° |
| 2026-05-05 20:47 | 31.70266 | -8.18021 | 7791 ft | 270 kts | 13° |
| 2026-05-05 20:48 | 31.72090 | -8.17478 | 8524 ft | 270 kts | 12° |
| 2026-05-05 20:48 | 31.73918 | -8.16931 | 9237 ft | 273 kts | 11° |
| 2026-05-05 20:48 | 31.75766 | -8.16380 | 9952 ft | 275 kts | 10° |
| 2026-05-05 20:48 | 31.77630 | -8.15825 | 10608 ft | 278 kts | 9° |
| 2026-05-05 20:49 | 31.79518 | -8.15278 | 11246 ft | 280 kts | 5° |
| 2026-05-05 20:49 | 31.81466 | -8.15219 | 11674 ft | 287 kts | 348° |
| 2026-05-05 20:49 | 31.83527 | -8.15522 | 11836 ft | 310 kts | 346° |
| 2026-05-05 20:49 | 31.85744 | -8.15883 | 12026 ft | 332 kts | 347° |
| 2026-05-05 20:50 | 31.88086 | -8.16253 | 12465 ft | 345 kts | 347° |
| 2026-05-05 20:50 | 31.90487 | -8.16613 | 13136 ft | 350 kts | 347° |
| 2026-05-05 20:50 | 31.92914 | -8.16963 | 13893 ft | 353 kts | 347° |
| 2026-05-05 20:50 | 31.95364 | -8.17309 | 14581 ft | 356 kts | 347° |
| 2026-05-05 20:51 | 31.97832 | -8.17656 | 15292 ft | 358 kts | 346° |
| 2026-05-05 20:51 | 32.00315 | -8.18004 | 16005 ft | 361 kts | 346° |
| 2026-05-05 20:51 | 32.02819 | -8.18355 | 16709 ft | 364 kts | 347° |
| 2026-05-05 20:51 | 32.05348 | -8.18710 | 17393 ft | 367 kts | 347° |
| 2026-05-05 20:52 | 32.07894 | -8.19068 | 18097 ft | 370 kts | 347° |
| 2026-05-05 20:52 | 32.10465 | -8.19430 | 18735 ft | 373 kts | 347° |
| 2026-05-05 20:52 | 32.13073 | -8.19684 | 19305 ft | 383 kts | 355° |
| 2026-05-05 20:52 | 32.15754 | -8.19375 | 19886 ft | 391 kts | 1° |
| 2026-05-05 20:53 | 32.18462 | -8.18907 | 20440 ft | 395 kts | 2° |
| 2026-05-05 20:53 | 32.21191 | -8.18405 | 20964 ft | 399 kts | 2° |
| 2026-05-05 20:53 | 32.23954 | -8.17904 | 21518 ft | 403 kts | 1° |
| 2026-05-05 20:53 | 32.26741 | -8.17414 | 22057 ft | 407 kts | 1° |
| 2026-05-05 20:54 | 32.29551 | -8.16937 | 22592 ft | 410 kts | 1° |
| 2026-05-05 20:54 | 32.32387 | -8.16465 | 23123 ft | 414 kts | 0° |
| 2026-05-05 20:54 | 32.35251 | -8.15996 | 23635 ft | 417 kts | 0° |
| 2026-05-05 20:54 | 32.38115 | -8.15528 | 24344 ft | 412 kts | 1° |
| 2026-05-05 20:55 | 32.40956 | -8.15062 | 24840 ft | 414 kts | 1° |
| 2026-05-05 20:55 | 32.43838 | -8.14595 | 25132 ft | 421 kts | 1° |
| 2026-05-05 20:55 | 32.46761 | -8.14121 | 25497 ft | 426 kts | 1° |
| 2026-05-05 20:55 | 32.49668 | -8.13647 | 25903 ft | 429 kts | 1° |
| 2026-05-05 20:56 | 32.52630 | -8.13163 | 26283 ft | 431 kts | 1° |
| 2026-05-05 20:56 | 32.55614 | -8.12674 | 26664 ft | 434 kts | 0° |
| 2026-05-05 20:56 | 32.58619 | -8.12182 | 27038 ft | 438 kts | 0° |
| 2026-05-05 20:56 | 32.61648 | -8.11686 | 27404 ft | 441 kts | 0° |
| 2026-05-05 20:57 | 32.64687 | -8.11187 | 27979 ft | 438 kts | 2° |
| 2026-05-05 20:57 | 32.67692 | -8.10690 | 28621 ft | 436 kts | 2° |
| 2026-05-05 20:57 | 32.70715 | -8.10195 | 28877 ft | 442 kts | 2° |
| 2026-05-05 20:57 | 32.73780 | -8.09696 | 29096 ft | 447 kts | 2° |
| 2026-05-05 20:58 | 32.76871 | -8.09194 | 29451 ft | 450 kts | 2° |
| 2026-05-05 20:58 | 32.79778 | -8.08722 | 29812 ft | 451 kts | 2° |
| 2026-05-05 20:58 | 32.82895 | -8.08214 | 30152 ft | 453 kts | 2° |
| 2026-05-05 20:58 | 32.86027 | -8.07704 | 30417 ft | 456 kts | 2° |
| 2026-05-05 20:59 | 32.89180 | -8.07191 | 30660 ft | 459 kts | 2° |
| 2026-05-05 20:59 | 32.92324 | -8.06506 | 31155 ft | 458 kts | 11° |
| 2026-05-05 20:59 | 32.95340 | -8.05295 | 31657 ft | 460 kts | 19° |
| 2026-05-05 20:59 | 32.98212 | -8.03556 | 31938 ft | 465 kts | 24° |
| 2026-05-05 21:00 | 33.01047 | -8.01665 | 32164 ft | 469 kts | 25° |
| 2026-05-05 21:00 | 33.03889 | -7.99734 | 32378 ft | 472 kts | 25° |
| 2026-05-05 21:00 | 33.06748 | -7.97795 | 32636 ft | 474 kts | 25° |
| 2026-05-05 21:00 | 33.09619 | -7.95865 | 32950 ft | 474 kts | 24° |
| 2026-05-05 21:01 | 33.12496 | -7.93949 | 33258 ft | 474 kts | 24° |
| 2026-05-05 21:01 | 33.15390 | -7.92033 | 33517 ft | 476 kts | 23° |
| 2026-05-05 21:01 | 33.18291 | -7.90120 | 33787 ft | 477 kts | 23° |
| 2026-05-05 21:01 | 33.21200 | -7.88201 | 34072 ft | 478 kts | 22° |
| 2026-05-05 21:02 | 33.24112 | -7.86279 | 34308 ft | 479 kts | 22° |
| 2026-05-05 21:02 | 33.27025 | -7.84353 | 34563 ft | 479 kts | 22° |
| 2026-05-05 21:02 | 33.29936 | -7.82425 | 34824 ft | 479 kts | 22° |
| 2026-05-05 21:02 | 33.32850 | -7.80495 | 35081 ft | 479 kts | 22° |
| 2026-05-05 21:03 | 33.35761 | -7.78564 | 35349 ft | 478 kts | 22° |
| 2026-05-05 21:03 | 33.38670 | -7.76633 | 35605 ft | 478 kts | 22° |
| 2026-05-05 21:03 | 33.41576 | -7.74703 | 35840 ft | 478 kts | 22° |
| 2026-05-05 21:03 | 33.44488 | -7.72768 | 36047 ft | 479 kts | 22° |
| 2026-05-05 21:04 | 33.50373 | -7.69253 | 36043 ft | 461 kts | 11° |
| 2026-05-05 21:04 | 33.53448 | -7.68362 | 36059 ft | 450 kts | 2° |
| 2026-05-05 21:04 | 33.56537 | -7.68025 | 36050 ft | 442 kts | 352° |
| 2026-05-05 21:05 | 33.62608 | -7.68548 | 36046 ft | 437 kts | 348° |
| 2026-05-05 21:05 | 33.68680 | -7.69176 | 36079 ft | 438 kts | 348° |
| 2026-05-05 21:06 | 33.74775 | -7.69765 | 36081 ft | 440 kts | 350° |
| 2026-05-05 21:06 | 33.80896 | -7.70328 | 36078 ft | 442 kts | 350° |
| 2026-05-05 21:07 | 33.87033 | -7.70888 | 36076 ft | 443 kts | 350° |
| 2026-05-05 21:07 | 33.93187 | -7.71451 | 36077 ft | 444 kts | 350° |
| 2026-05-05 21:08 | 33.99347 | -7.72017 | 36098 ft | 444 kts | 351° |
| 2026-05-05 21:08 | 34.05512 | -7.72584 | 36080 ft | 444 kts | 351° |
| 2026-05-05 21:09 | 34.11632 | -7.73147 | 36079 ft | 443 kts | 351° |
| 2026-05-05 21:09 | 34.17780 | -7.73715 | 36080 ft | 442 kts | 351° |
| 2026-05-05 21:10 | 34.23912 | -7.74205 | 36094 ft | 441 kts | 352° |
| 2026-05-05 21:10 | 34.30042 | -7.74612 | 36080 ft | 441 kts | 352° |
| 2026-05-05 21:11 | 34.36156 | -7.75024 | 36079 ft | 439 kts | 352° |
| 2026-05-05 21:11 | 34.42255 | -7.75447 | 36078 ft | 439 kts | 352° |
| 2026-05-05 21:12 | 34.48344 | -7.75876 | 36082 ft | 438 kts | 352° |
| 2026-05-05 21:12 | 34.54434 | -7.76305 | 36084 ft | 438 kts | 352° |
| 2026-05-05 21:13 | 34.60529 | -7.76735 | 36078 ft | 439 kts | 352° |
| 2026-05-05 21:13 | 34.66632 | -7.77165 | 36077 ft | 440 kts | 352° |
| 2026-05-05 21:14 | 34.72740 | -7.77597 | 36076 ft | 440 kts | 352° |
| 2026-05-05 21:14 | 34.78861 | -7.78063 | 36083 ft | 440 kts | 351° |
| 2026-05-05 21:15 | 34.81899 | -7.78317 | 35931 ft | 436 kts | 351° |
| 2026-05-05 21:15 | 34.84902 | -7.78569 | 35638 ft | 429 kts | 351° |
| 2026-05-05 21:15 | 34.87822 | -7.78815 | 35253 ft | 425 kts | 351° |
| 2026-05-05 21:15 | 34.90756 | -7.79062 | 34891 ft | 421 kts | 351° |
| 2026-05-05 21:16 | 34.93667 | -7.79306 | 34520 ft | 418 kts | 352° |
| 2026-05-05 21:16 | 34.96557 | -7.79548 | 34150 ft | 415 kts | 352° |
| 2026-05-05 21:16 | 34.99434 | -7.79788 | 33731 ft | 413 kts | 352° |
| 2026-05-05 21:16 | 35.02288 | -7.80026 | 33335 ft | 410 kts | 352° |
| 2026-05-05 21:17 | 35.05123 | -7.80262 | 32941 ft | 407 kts | 352° |
| 2026-05-05 21:17 | 35.07932 | -7.80496 | 32566 ft | 404 kts | 351° |
| 2026-05-05 21:17 | 35.10724 | -7.80728 | 32199 ft | 400 kts | 351° |
| 2026-05-05 21:17 | 35.13490 | -7.80959 | 31843 ft | 397 kts | 351° |
| 2026-05-05 21:18 | 35.16242 | -7.81188 | 31485 ft | 395 kts | 351° |
| 2026-05-05 21:18 | 35.18971 | -7.81417 | 31133 ft | 392 kts | 351° |
| 2026-05-05 21:18 | 35.21681 | -7.81643 | 30781 ft | 389 kts | 351° |
| 2026-05-05 21:18 | 35.24377 | -7.81869 | 30440 ft | 387 kts | 351° |
| 2026-05-05 21:19 | 35.27056 | -7.82094 | 30091 ft | 385 kts | 351° |
| 2026-05-05 21:19 | 35.29719 | -7.82317 | 29684 ft | 383 kts | 351° |
| 2026-05-05 21:19 | 35.32365 | -7.82539 | 29298 ft | 379 kts | 351° |
| 2026-05-05 21:19 | 35.34984 | -7.82759 | 28947 ft | 376 kts | 351° |
| 2026-05-05 21:20 | 35.37585 | -7.82977 | 28581 ft | 373 kts | 351° |
| 2026-05-05 21:20 | 35.40159 | -7.83193 | 28230 ft | 369 kts | 351° |
| 2026-05-05 21:20 | 35.42716 | -7.83411 | 27868 ft | 367 kts | 351° |
| 2026-05-05 21:20 | 35.45249 | -7.83635 | 27518 ft | 364 kts | 351° |
| 2026-05-05 21:21 | 35.47767 | -7.83863 | 27174 ft | 361 kts | 350° |
| 2026-05-05 21:21 | 35.50264 | -7.84089 | 26843 ft | 359 kts | 350° |
| 2026-05-05 21:21 | 35.52748 | -7.84314 | 26500 ft | 357 kts | 350° |
| 2026-05-05 21:21 | 35.55214 | -7.84537 | 26160 ft | 354 kts | 350° |
| 2026-05-05 21:22 | 35.57668 | -7.84759 | 25820 ft | 352 kts | 350° |
| 2026-05-05 21:22 | 35.60107 | -7.84979 | 25483 ft | 351 kts | 350° |
| 2026-05-05 21:22 | 35.62534 | -7.85199 | 25151 ft | 349 kts | 350° |
| 2026-05-05 21:22 | 35.64950 | -7.85417 | 24821 ft | 347 kts | 350° |
| 2026-05-05 21:23 | 35.67352 | -7.85635 | 24492 ft | 346 kts | 350° |
| 2026-05-05 21:23 | 35.69746 | -7.85851 | 24163 ft | 344 kts | 350° |
| 2026-05-05 21:23 | 35.72102 | -7.86065 | 23838 ft | 343 kts | 350° |
| 2026-05-05 21:23 | 35.74481 | -7.86281 | 23469 ft | 343 kts | 350° |
| 2026-05-05 21:24 | 35.76852 | -7.86496 | 23095 ft | 341 kts | 350° |
| 2026-05-05 21:24 | 35.79210 | -7.86709 | 22743 ft | 339 kts | 350° |
| 2026-05-05 21:24 | 35.81554 | -7.86921 | 22405 ft | 336 kts | 351° |
| 2026-05-05 21:24 | 35.83879 | -7.87132 | 22076 ft | 334 kts | 351° |
| 2026-05-05 21:25 | 35.86189 | -7.87342 | 21750 ft | 332 kts | 351° |
| 2026-05-05 21:25 | 35.88482 | -7.87551 | 21429 ft | 329 kts | 351° |
| 2026-05-05 21:25 | 35.90759 | -7.87758 | 21102 ft | 327 kts | 351° |
| 2026-05-05 21:25 | 35.93023 | -7.87964 | 20797 ft | 325 kts | 351° |
| 2026-05-05 21:26 | 35.95303 | -7.88172 | 20479 ft | 323 kts | 351° |
| 2026-05-05 21:26 | 35.97537 | -7.88387 | 20167 ft | 321 kts | 350° |
| 2026-05-05 21:26 | 35.99750 | -7.88692 | 19875 ft | 319 kts | 349° |
| 2026-05-05 21:26 | 36.01988 | -7.88693 | 19373 ft | 329 kts | 5° |
| 2026-05-05 21:27 | 36.04255 | -7.88201 | 18980 ft | 331 kts | 6° |
| 2026-05-05 21:27 | 36.06512 | -7.87679 | 18682 ft | 329 kts | 7° |
| 2026-05-05 21:27 | 36.08752 | -7.87161 | 18400 ft | 326 kts | 7° |
| 2026-05-05 21:27 | 36.10981 | -7.86650 | 18056 ft | 324 kts | 6° |
| 2026-05-05 21:28 | 36.13194 | -7.86151 | 17724 ft | 321 kts | 7° |
| 2026-05-05 21:28 | 36.15374 | -7.85663 | 17223 ft | 317 kts | 6° |
| 2026-05-05 21:28 | 36.17550 | -7.85180 | 16637 ft | 317 kts | 6° |
| 2026-05-05 21:28 | 36.19720 | -7.84702 | 16091 ft | 316 kts | 6° |
| 2026-05-05 21:29 | 36.21878 | -7.84227 | 15581 ft | 314 kts | 6° |
| 2026-05-05 21:29 | 36.24021 | -7.83755 | 15082 ft | 312 kts | 6° |
| 2026-05-05 21:29 | 36.25437 | -7.83444 | 14766 ft | 311 kts | 6° |
| 2026-05-05 21:29 | 36.27558 | -7.82978 | 14280 ft | 309 kts | 5° |
| 2026-05-05 21:30 | 36.29669 | -7.82514 | 13792 ft | 307 kts | 6° |
| 2026-05-05 21:30 | 36.31765 | -7.82053 | 13279 ft | 305 kts | 6° |
| 2026-05-05 21:30 | 36.33844 | -7.81596 | 12771 ft | 302 kts | 5° |
| 2026-05-05 21:30 | 36.35907 | -7.81142 | 12316 ft | 299 kts | 6° |
| 2026-05-05 21:31 | 36.37931 | -7.80696 | 11969 ft | 292 kts | 6° |
| 2026-05-05 21:31 | 36.39910 | -7.80259 | 11666 ft | 287 kts | 6° |
| 2026-05-05 21:31 | 36.41876 | -7.79826 | 11370 ft | 286 kts | 6° |
| 2026-05-05 21:31 | 36.43835 | -7.79395 | 11082 ft | 286 kts | 6° |
| 2026-05-05 21:32 | 36.45788 | -7.78965 | 10791 ft | 285 kts | 6° |
| 2026-05-05 21:32 | 36.47739 | -7.78536 | 10500 ft | 284 kts | 7° |
| 2026-05-05 21:32 | 36.49687 | -7.78106 | 10225 ft | 284 kts | 6° |
| 2026-05-05 21:32 | 36.51605 | -7.77681 | 10079 ft | 277 kts | 6° |
| 2026-05-05 21:33 | 36.53495 | -7.77263 | 9834 ft | 275 kts | 6° |
| 2026-05-05 21:33 | 36.55372 | -7.76849 | 9548 ft | 273 kts | 7° |
| 2026-05-05 21:33 | 36.57240 | -7.76436 | 9274 ft | 272 kts | 7° |
| 2026-05-05 21:33 | 36.59097 | -7.76025 | 9006 ft | 270 kts | 7° |
| 2026-05-05 21:34 | 36.60941 | -7.75618 | 8728 ft | 269 kts | 8° |
| 2026-05-05 21:34 | 36.62776 | -7.75211 | 8461 ft | 267 kts | 7° |
| 2026-05-05 21:34 | 36.64598 | -7.74807 | 8196 ft | 265 kts | 8° |
| 2026-05-05 21:34 | 36.66410 | -7.74406 | 7935 ft | 264 kts | 8° |
| 2026-05-05 21:35 | 36.68214 | -7.74006 | 7675 ft | 262 kts | 8° |
| 2026-05-05 21:35 | 36.70008 | -7.73608 | 7416 ft | 261 kts | 9° |
| 2026-05-05 21:35 | 36.71792 | -7.73212 | 7154 ft | 260 kts | 9° |
| 2026-05-05 21:35 | 36.73570 | -7.72817 | 6899 ft | 259 kts | 9° |
| 2026-05-05 21:36 | 36.75337 | -7.72424 | 6644 ft | 257 kts | 9° |
| 2026-05-05 21:36 | 36.77097 | -7.72033 | 6381 ft | 256 kts | 10° |
| 2026-05-05 21:36 | 36.78851 | -7.71643 | 6102 ft | 255 kts | 10° |
| 2026-05-05 21:36 | 36.80596 | -7.71254 | 5834 ft | 254 kts | 10° |
| 2026-05-05 21:37 | 36.82312 | -7.70872 | 5567 ft | 253 kts | 10° |
| 2026-05-05 21:37 | 36.84043 | -7.70486 | 5309 ft | 252 kts | 10° |
| 2026-05-05 21:37 | 36.85744 | -7.70107 | 5194 ft | 245 kts | 10° |
| 2026-05-05 21:37 | 36.87397 | -7.69738 | 5062 ft | 238 kts | 10° |
| 2026-05-05 21:38 | 36.89003 | -7.69380 | 4957 ft | 231 kts | 10° |
| 2026-05-05 21:38 | 36.90559 | -7.69032 | 4866 ft | 223 kts | 10° |
| 2026-05-05 21:38 | 36.92059 | -7.68698 | 4790 ft | 214 kts | 10° |
| 2026-05-05 21:38 | 36.93521 | -7.68371 | 4571 ft | 213 kts | 10° |
| 2026-05-05 21:39 | 36.94975 | -7.68046 | 4347 ft | 211 kts | 10° |
| 2026-05-05 21:39 | 36.96406 | -7.68075 | 4096 ft | 207 kts | 338° |
| 2026-05-05 21:39 | 36.97404 | -7.69279 | 4032 ft | 209 kts | 294° |
| 2026-05-05 21:39 | 36.97737 | -7.71075 | 3923 ft | 216 kts | 286° |
| 2026-05-05 21:40 | 36.98081 | -7.72915 | 3644 ft | 216 kts | 286° |
| 2026-05-05 21:40 | 36.98371 | -7.74727 | 3363 ft | 207 kts | 286° |
| 2026-05-05 21:40 | 36.98615 | -7.76449 | 3112 ft | 195 kts | 286° |
| 2026-05-05 21:40 | 36.98841 | -7.78075 | 2849 ft | 184 kts | 286° |
| 2026-05-05 21:41 | 36.99055 | -7.79613 | 2600 ft | 175 kts | 287° |
| 2026-05-05 21:41 | 36.99258 | -7.81068 | 2372 ft | 164 kts | 287° |
| 2026-05-05 21:41 | 36.99451 | -7.82444 | 2156 ft | 157 kts | 287° |
| 2026-05-05 21:41 | 36.99636 | -7.83761 | 1967 ft | 150 kts | 287° |
| 2026-05-05 21:42 | 36.99812 | -7.85017 | 1760 ft | 145 kts | 288° |
| 2026-05-05 21:42 | 36.99987 | -7.86254 | 1609 ft | 143 kts | 288° |
| 2026-05-05 21:42 | 37.00164 | -7.87502 | 1376 ft | 148 kts | 286° |
| 2026-05-05 21:42 | 37.00341 | -7.88776 | 1166 ft | 149 kts | 286° |
| 2026-05-05 21:43 | 37.00518 | -7.90039 | 972 ft | 147 kts | 284° |
| 2026-05-05 21:43 | 37.00699 | -7.91304 | 796 ft | 149 kts | 284° |
| 2026-05-05 21:43 | 37.00894 | -7.92577 | 584 ft | 149 kts | 282° |
| 2026-05-05 21:43 | 37.01050 | -7.93860 | 387 ft | 148 kts | 281° |
| 2026-05-05 21:44 | 37.01230 | -7.95102 | 208 ft | 140 kts | 283° |
| 2026-05-05 21:44 | 37.01404 | -7.96298 | 29 ft | 139 kts | 283° |
| 2026-05-05 21:44 | 37.01549 | -7.97297 | 18 ft | 87 kts | 278° |
| 2026-05-05 21:44 | 37.01623 | -7.97833 | 18 ft | 36 kts | 281° |
| 2026-05-05 21:45 | 37.01687 | -7.98075 | 23 ft | 27 kts | 300° |
| 2026-05-05 21:45 | 37.01788 | -7.98225 | 20 ft | 13 kts | 336° |
| 2026-05-05 21:45 | 37.01848 | -7.98172 | 20 ft | 12 kts | 84° |
| 2026-05-05 21:45 | 37.01833 | -7.98038 | 19 ft | 19 kts | 99° |
| 2026-05-05 21:46 | 37.01811 | -7.97874 | 19 ft | 19 kts | 99° |
| 2026-05-05 21:46 | 37.01788 | -7.97710 | 19 ft | 19 kts | 100° |
| 2026-05-05 21:46 | 37.01766 | -7.97554 | 19 ft | 18 kts | 100° |
| 2026-05-05 21:46 | 37.01756 | -7.97483 | 20 ft | 0 kts | 98° |
| 2026-05-05 21:48 | 37.01745 | -7.97402 | 19 ft | 16 kts | 100° |
| 2026-05-05 21:48 | 37.01724 | -7.97263 | 20 ft | 16 kts | 100° |
| 2026-05-05 21:48 | 37.01706 | -7.97132 | 19 ft | 15 kts | 100° |
| 2026-05-05 21:48 | 37.01688 | -7.97005 | 19 ft | 14 kts | 100° |
| 2026-05-05 21:49 | 37.01670 | -7.96881 | 19 ft | 16 kts | 100° |
| 2026-05-05 21:49 | 37.01647 | -7.96730 | 19 ft | 18 kts | 100° |
| 2026-05-05 21:49 | 37.01628 | -7.96593 | 19 ft | 11 kts | 97° |
| 2026-05-05 21:49 | 37.01680 | -7.96536 | 19 ft | 11 kts | 10° |
| 2026-05-05 21:50 | 37.01753 | -7.96512 | 20 ft | 11 kts | 33° |
| 2026-05-05 21:50 | 37.01771 | -7.96439 | 19 ft | 9 kts | 97° |
| 2026-05-05 21:50 | 37.01772 | -7.96379 | 22 ft | 6 kts | 36° |
| 2026-05-05 21:50 | 37.01813 | -7.96366 | 20 ft | 6 kts | 10° |
| 2026-05-05 21:51 | 37.01839 | -7.96360 | 19 ft | 1 kts | 9° |
| 2026-05-05 21:51 | 37.01844 | -7.96359 | 19 ft | 1 kts | 9° |
| 2026-05-05 21:51 | 37.01846 | -7.96358 | 19 ft | 0 kts | 9° |